Daisinmaru No.11 — JK5352 — position and weather

sailwx.info

Track history (hours):
 
Tides and Currents Weather Stations Pressure Air Temp Water Temp Dewpoint Dewpoint Depression Visibility Wind Speed Wind Dir Waves Ship Positions

Daisinmaru No.11

Last reported at 2014-Dec-20 04:25 UTC. Time now 2014-Dec-21 00:24 UTC.
Position N 35°30' E 139°52'.

Length 52 m; draft 5.2 m.

Type: Cargo ship. MMSI: 431000667.

Date/timePositionNaut miles runAvg speedWind from/ knotsBaromVisibWave heightAir tempDewpointWater temp
2014-Dec-20 04:25N 35°30' E 139°52'8 8.9
2014-Dec-20 03:33N 35°29' E 139°43'0 0.2
2014-Dec-20 02:33N 35°29' E 139°43'0 0.0
2014-Dec-20 01:33N 35°29' E 139°43'4 3.8
2014-Dec-20 00:33N 35°30' E 139°47'4 0.1
2014-Dec-18 04:13N 35°35' E 139°47'1 1.3
2014-Dec-18 03:32N 35°34' E 139°48'0 0.0
2014-Dec-18 01:09N 35°34' E 139°48'6 7.2
2014-Dec-18 00:22N 35°32' E 139°54'  
2014-Dec-15 07:33N 35°34' E 139°47'0 0.2
2014-Dec-15 06:33N 35°34' E 139°48'0 0.0
2014-Dec-15 05:32N 35°34' E 139°48'0 0.0
2014-Dec-15 04:33N 35°34' E 139°48'6 0.1
2014-Dec-13 03:33N 35°29' E 139°43'0 0.0
2014-Dec-13 02:33N 35°29' E 139°43'0 0.0
2014-Dec-13 01:33N 35°29' E 139°43'5 4.7
2014-Dec-13 00:33N 35°30' E 139°48'3 0.2
2014-Dec-12 08:34N 35°30' E 139°45'2 2.1
2014-Dec-12 07:33N 35°29' E 139°43'0 0.0
2014-Dec-12 06:33N 35°29' E 139°43'0 0.0
2014-Dec-12 05:34N 35°29' E 139°43'5 5.0
2014-Dec-12 04:32N 35°30' E 139°49'  
Track history (hours):
 
Tides and Currents Weather Stations Pressure Air Temp Water Temp Dewpoint Dewpoint Depression Visibility Wind Speed Wind Dir Waves Ship Positions

Daisinmaru No.11

Last reported at 2014-Dec-20 04:25 UTC. Time now 2014-Dec-21 00:24 UTC.
Position N 35°30' E 139°52'.

Length 52 m; draft 5.2 m.

Type: Cargo ship. MMSI: 431000667.

Date/timePositionNaut miles runAvg speedWind from/ knotsBaromVisibWave heightAir tempDewpointWater temp
2014-Dec-20 04:25N 35°30' E 139°52'8 8.9
2014-Dec-20 03:33N 35°29' E 139°43'0 0.2
2014-Dec-20 02:33N 35°29' E 139°43'0 0.0
2014-Dec-20 01:33N 35°29' E 139°43'4 3.8
2014-Dec-20 00:33N 35°30' E 139°47'4 0.1
2014-Dec-18 04:13N 35°35' E 139°47'1 1.3
2014-Dec-18 03:32N 35°34' E 139°48'0 0.0
2014-Dec-18 01:09N 35°34' E 139°48'6 7.2
2014-Dec-18 00:22N 35°32' E 139°54'  
2014-Dec-15 07:33N 35°34' E 139°47'0 0.2
2014-Dec-15 06:33N 35°34' E 139°48'0 0.0
2014-Dec-15 05:32N 35°34' E 139°48'0 0.0
2014-Dec-15 04:33N 35°34' E 139°48'6 0.1
2014-Dec-13 03:33N 35°29' E 139°43'0 0.0
2014-Dec-13 02:33N 35°29' E 139°43'0 0.0
2014-Dec-13 01:33N 35°29' E 139°43'5 4.7
2014-Dec-13 00:33N 35°30' E 139°48'3 0.2
2014-Dec-12 08:34N 35°30' E 139°45'2 2.1
2014-Dec-12 07:33N 35°29' E 139°43'0 0.0
2014-Dec-12 06:33N 35°29' E 139°43'0 0.0
2014-Dec-12 05:34N 35°29' E 139°43'5 5.0
2014-Dec-12 04:32N 35°30' E 139°49'  

Dump ship's entire track history